createdAt,value
2023-03-17T00:01:58.503Z,4.50
2023-03-17T00:04:29.617Z,2.73
2023-03-17T00:11:29.466Z,3.07
2023-03-17T00:13:58.058Z,3.83
2023-03-17T00:16:28.557Z,3.13
2023-03-17T00:18:58.663Z,2.50
2023-03-17T00:21:30.946Z,2.83
2023-03-17T00:24:00.258Z,2.00
2023-03-17T00:26:29.056Z,2.33
2023-03-17T00:28:58.018Z,3.80
2023-03-17T00:31:29.582Z,3.00
2023-03-17T00:33:59.279Z,2.00
2023-03-17T00:36:31.643Z,2.97
2023-03-17T00:39:00.769Z,5.07
2023-03-17T00:41:29.655Z,3.33
2023-03-17T00:43:58.675Z,2.40
2023-03-17T00:46:36.009Z,2.23
2023-03-17T00:49:11.915Z,2.87
2023-03-17T00:51:43.939Z,3.33
2023-03-17T00:54:13.031Z,1.70
2023-03-17T00:56:42.564Z,2.10
2023-03-17T00:59:20.682Z,2.63
2023-03-17T01:01:49.325Z,1.93
2023-03-17T01:04:18.302Z,2.10
2023-03-17T01:06:49.892Z,3.00
2023-03-17T01:09:22.240Z,3.03
2023-03-17T01:11:50.608Z,2.93
2023-03-17T01:14:19.085Z,2.97
2023-03-17T01:16:47.862Z,3.27
2023-03-17T01:19:17.201Z,3.37
2023-03-17T01:21:45.828Z,2.50
2023-03-17T01:24:15.773Z,2.20
2023-03-17T01:26:44.862Z,2.37
2023-03-17T01:29:13.975Z,2.07
2023-03-17T01:31:42.577Z,2.40
2023-03-17T01:34:11.699Z,2.97
2023-03-17T01:36:41.470Z,2.03
2023-03-17T01:39:09.890Z,2.20
2023-03-17T01:41:40.274Z,2.17
2023-03-17T01:44:14.033Z,1.90
2023-03-17T01:46:42.499Z,2.13
2023-03-17T01:49:21.250Z,1.97
2023-03-17T01:52:01.090Z,1.40
2023-03-17T01:54:36.071Z,1.53
2023-03-17T01:57:11.808Z,1.53
2023-03-17T01:59:45.631Z,1.80
2023-03-17T02:02:18.925Z,1.90
2023-03-17T02:04:47.412Z,1.63
2023-03-17T02:07:16.042Z,1.70
2023-03-17T02:09:44.878Z,1.50
2023-03-17T02:12:15.643Z,3.13
2023-03-17T02:14:44.296Z,1.60
2023-03-17T02:17:14.933Z,1.20
2023-03-17T02:19:44.120Z,1.00
2023-03-17T02:22:14.084Z,1.00
2023-03-17T02:24:50.376Z,1.30
2023-03-17T02:27:21.343Z,1.30
2023-03-17T02:29:51.014Z,1.10
2023-03-17T02:32:20.467Z,1.63
2023-03-17T02:34:49.897Z,2.07
2023-03-17T02:37:20.840Z,1.43
2023-03-17T02:39:49.350Z,0.87
2023-03-17T02:42:17.942Z,1.27
2023-03-17T02:44:46.503Z,1.53
2023-03-17T02:47:14.978Z,0.97
2023-03-17T02:49:44.812Z,1.43
2023-03-17T02:52:13.410Z,1.20
2023-03-17T02:54:43.524Z,1.97
2023-03-17T02:57:11.968Z,0.87
2023-03-17T02:59:40.378Z,1.23
2023-03-17T03:02:08.948Z,1.37
2023-03-17T03:04:37.688Z,1.17
2023-03-17T03:07:06.479Z,1.00
2023-03-17T03:09:34.923Z,1.10
2023-03-17T03:12:05.606Z,1.10
2023-03-17T03:14:35.051Z,1.30
2023-03-17T03:17:04.575Z,1.23
2023-03-17T03:19:33.085Z,1.10
2023-03-17T03:22:01.524Z,1.23
2023-03-17T03:24:29.900Z,1.23
2023-03-17T03:26:58.349Z,1.00
2023-03-17T03:29:28.327Z,1.20
2023-03-17T03:31:56.720Z,0.90
2023-03-17T03:34:25.121Z,1.10
2023-03-17T03:36:53.504Z,0.90
2023-03-17T03:39:21.970Z,0.90
2023-03-17T03:41:50.341Z,1.17
2023-03-17T03:44:18.923Z,1.00
2023-03-17T03:46:48.805Z,1.00
2023-03-17T03:49:17.319Z,0.90
2023-03-17T03:51:45.870Z,1.30
2023-03-17T03:54:14.311Z,0.87
2023-03-17T03:56:42.672Z,0.87
2023-03-17T03:59:11.200Z,1.37
2023-03-17T04:01:40.200Z,1.10
2023-03-17T04:04:10.068Z,1.20
2023-03-17T04:06:38.636Z,1.07
2023-03-17T04:09:07.038Z,1.10
2023-03-17T04:11:35.487Z,1.00
2023-03-17T04:14:04.261Z,1.10
2023-03-17T04:16:33.189Z,1.07
2023-03-17T04:19:01.836Z,1.03
2023-03-17T04:21:32.060Z,0.90
2023-03-17T04:24:00.593Z,1.10
2023-03-17T04:26:28.911Z,0.80
2023-03-17T04:28:57.612Z,0.90
2023-03-17T04:31:26.088Z,1.00
2023-03-17T04:33:54.474Z,1.10
2023-03-17T04:36:25.307Z,1.03
2023-03-17T04:38:55.280Z,1.10
2023-03-17T04:41:23.609Z,0.90
2023-03-17T04:43:52.235Z,1.30
2023-03-17T04:46:20.694Z,1.10
2023-03-17T04:48:49.072Z,0.90
2023-03-17T04:51:17.921Z,1.50
2023-03-17T04:53:46.462Z,1.07
2023-03-17T04:56:16.389Z,1.23
2023-03-17T04:58:44.827Z,1.40
2023-03-17T05:01:13.419Z,1.20
2023-03-17T05:03:41.805Z,1.13
2023-03-17T05:06:10.199Z,0.90
2023-03-17T05:08:38.654Z,0.90
2023-03-17T05:11:07.641Z,1.27
2023-03-17T05:13:37.530Z,0.90
2023-03-17T05:16:06.600Z,1.10
2023-03-17T05:18:36.240Z,0.93
2023-03-17T05:21:05.735Z,1.13
2023-03-17T05:23:34.193Z,1.60
2023-03-17T05:26:03.185Z,0.70
2023-03-17T05:28:32.579Z,1.20
2023-03-17T05:31:02.709Z,1.17
2023-03-17T05:33:31.219Z,1.10
2023-03-17T05:35:59.716Z,1.20
2023-03-17T05:38:28.391Z,0.97
2023-03-17T05:40:57.053Z,0.97
2023-03-17T05:43:25.551Z,0.90
2023-03-17T05:45:54.097Z,0.87
2023-03-17T05:48:23.908Z,1.33
2023-03-17T05:50:52.353Z,1.27
2023-03-17T05:53:20.951Z,1.13
2023-03-17T05:55:49.612Z,1.20
2023-03-17T05:58:18.538Z,0.90
2023-03-17T06:00:47.286Z,1.10
2023-03-17T06:03:16.007Z,1.40
2023-03-17T06:05:46.006Z,0.70
2023-03-17T06:08:15.090Z,1.40
2023-03-17T06:10:43.860Z,0.90
2023-03-17T06:13:12.953Z,1.23
2023-03-17T06:15:42.364Z,1.00
2023-03-17T06:18:10.814Z,1.03
2023-03-17T06:20:39.187Z,1.40
2023-03-17T06:23:09.035Z,0.80
2023-03-17T06:25:37.746Z,1.23
2023-03-17T06:28:06.996Z,1.20
2023-03-17T06:30:40.538Z,0.80
2023-03-17T06:33:10.232Z,0.87
2023-03-17T06:35:38.839Z,0.90
2023-03-17T06:38:08.917Z,1.50
2023-03-17T06:40:37.620Z,0.90
2023-03-17T06:43:06.056Z,1.10
2023-03-17T06:45:34.949Z,1.77
2023-03-17T06:48:03.739Z,2.00
2023-03-17T06:50:33.174Z,1.47
2023-03-17T06:53:02.034Z,1.43
2023-03-17T06:55:33.919Z,2.10
2023-03-17T06:58:03.308Z,1.30
2023-03-17T07:00:31.814Z,1.57
2023-03-17T07:03:00.287Z,1.03
2023-03-17T07:05:28.735Z,1.63
2023-03-17T07:07:57.295Z,1.70
2023-03-17T07:10:26.308Z,0.87
2023-03-17T07:12:56.041Z,1.77
2023-03-17T07:15:24.843Z,2.13
2023-03-17T07:17:53.298Z,1.47
2023-03-17T07:20:22.139Z,1.87
2023-03-17T07:22:50.953Z,1.40
2023-03-17T07:25:19.687Z,1.67
2023-03-17T07:27:48.118Z,6.17
2023-03-17T07:30:19.535Z,1.97
2023-03-17T07:32:48.099Z,2.03
2023-03-17T07:35:16.705Z,5.43
2023-03-17T07:37:45.455Z,10.07
2023-03-17T07:40:14.484Z,5.73
2023-03-17T07:42:43.716Z,2.67
2023-03-17T07:45:13.011Z,2.50
2023-03-17T07:47:43.087Z,3.10
2023-03-17T07:50:12.513Z,1.10
2023-03-17T07:52:41.122Z,2.13
2023-03-17T07:55:10.886Z,1.27
2023-03-17T07:57:39.313Z,1.60
2023-03-17T08:00:10.502Z,1.97
2023-03-17T08:02:43.235Z,2.10
2023-03-17T08:05:13.366Z,1.43
2023-03-17T08:07:41.944Z,2.00
2023-03-17T08:10:11.784Z,1.37
2023-03-17T08:12:40.480Z,1.33
2023-03-17T08:15:09.740Z,1.30
2023-03-17T08:17:39.829Z,1.37
2023-03-17T08:20:11.739Z,1.40
2023-03-17T08:22:40.229Z,1.17
2023-03-17T08:25:10.252Z,1.30
2023-03-17T08:27:39.479Z,1.30
2023-03-17T08:30:09.394Z,1.30
2023-03-17T08:32:38.134Z,1.47
2023-03-17T08:35:07.570Z,1.27
2023-03-17T08:37:38.110Z,1.17
2023-03-17T08:40:10.136Z,1.20
2023-03-17T08:42:39.017Z,1.20
2023-03-17T08:45:10.028Z,1.23
2023-03-17T08:47:39.518Z,0.80
2023-03-17T08:50:16.710Z,0.90
2023-03-17T08:52:48.831Z,1.17
2023-03-17T08:55:17.736Z,1.03
2023-03-17T08:57:46.264Z,0.87
2023-03-17T09:00:16.760Z,1.00
2023-03-17T09:02:45.359Z,0.70
2023-03-17T09:05:15.850Z,0.87
2023-03-17T09:07:44.836Z,0.90
2023-03-17T09:10:17.020Z,0.87
2023-03-17T09:12:45.723Z,1.10
2023-03-17T09:15:14.433Z,1.17
2023-03-17T09:17:44.045Z,1.13
2023-03-17T09:20:13.917Z,0.90
2023-03-17T09:22:42.450Z,1.23
2023-03-17T09:25:11.307Z,1.07
2023-03-17T09:27:41.320Z,1.13
2023-03-17T09:30:11.142Z,1.03
2023-03-17T09:32:39.676Z,0.90
2023-03-17T09:35:08.477Z,1.17
2023-03-17T09:37:37.086Z,0.90
2023-03-17T09:40:09.167Z,0.53
2023-03-17T09:42:53.086Z,0.67
2023-03-17T09:45:31.440Z,0.50
2023-03-17T09:48:32.645Z,0.60
2023-03-17T09:51:05.064Z,0.83
2023-03-17T09:53:37.749Z,0.90
2023-03-17T09:56:13.397Z,0.70
2023-03-17T09:58:51.137Z,1.10
2023-03-17T10:01:19.814Z,1.00
2023-03-17T10:03:50.560Z,0.80
2023-03-17T10:06:34.917Z,0.60
2023-03-17T10:09:12.634Z,1.27
2023-03-17T10:11:43.483Z,1.27
2023-03-17T10:14:34.836Z,0.93
2023-03-17T10:17:13.098Z,1.07
2023-03-17T10:19:47.314Z,1.10
2023-03-17T10:22:21.872Z,0.87
2023-03-17T10:24:54.216Z,0.90
2023-03-17T10:27:23.019Z,1.40
2023-03-17T10:29:52.844Z,1.17
2023-03-17T10:32:21.547Z,1.20
2023-03-17T10:34:50.236Z,1.23
2023-03-17T10:37:21.706Z,0.70
2023-03-17T10:39:52.380Z,0.80
2023-03-17T10:42:25.801Z,0.87
2023-03-17T10:44:57.764Z,0.70
2023-03-17T10:47:31.787Z,0.70
2023-03-17T10:50:04.336Z,0.80
2023-03-17T10:52:37.722Z,0.80
2023-03-17T10:55:09.269Z,0.90
2023-03-17T10:57:39.084Z,1.50
2023-03-17T11:00:16.790Z,0.80
2023-03-17T11:02:48.541Z,0.73
2023-03-17T11:05:21.949Z,1.00
2023-03-17T11:07:57.981Z,0.60
2023-03-17T11:10:29.426Z,1.00
2023-03-17T11:13:02.059Z,0.60
2023-03-17T11:15:35.214Z,0.60
2023-03-17T11:18:05.775Z,0.60
2023-03-17T11:20:46.171Z,0.97
2023-03-17T11:23:23.796Z,0.80
2023-03-17T11:26:01.917Z,0.73
2023-03-17T11:28:36.611Z,0.87
2023-03-17T11:31:10.805Z,1.20
2023-03-17T11:33:47.503Z,0.67
2023-03-17T11:36:28.565Z,0.73
2023-03-17T11:39:04.269Z,0.70
2023-03-17T11:41:46.653Z,0.87
2023-03-17T11:44:52.578Z,0.87
2023-03-17T11:47:36.547Z,0.80
2023-03-17T11:50:13.912Z,0.73
2023-03-17T11:52:53.816Z,1.03
2023-03-17T11:55:26.388Z,1.40
2023-03-17T11:57:59.792Z,1.10
2023-03-17T12:00:34.021Z,1.10
2023-03-17T12:03:15.051Z,0.80
2023-03-17T12:05:47.516Z,0.73
2023-03-17T12:08:24.808Z,1.00
2023-03-17T12:10:57.340Z,0.80
2023-03-17T12:13:30.627Z,0.67
2023-03-17T12:16:05.558Z,0.70
2023-03-17T12:18:42.365Z,0.60
2023-03-17T12:21:18.798Z,0.67
2023-03-17T12:23:49.887Z,0.80
2023-03-17T12:26:21.323Z,0.80
2023-03-17T12:28:54.235Z,1.30
2023-03-17T12:31:28.311Z,0.83
2023-03-17T12:34:05.173Z,0.80
2023-03-17T12:36:34.267Z,1.10
2023-03-17T12:39:09.400Z,1.00
2023-03-17T12:41:57.690Z,0.70
2023-03-17T12:44:39.344Z,1.00
2023-03-17T12:47:26.104Z,0.83
2023-03-17T12:50:09.807Z,1.90
2023-03-17T12:53:15.582Z,0.70
2023-03-17T12:55:48.374Z,0.93
2023-03-17T12:58:29.596Z,0.90
2023-03-17T13:01:07.333Z,1.00
2023-03-17T13:03:38.772Z,1.00
2023-03-17T13:06:18.722Z,0.80
2023-03-17T13:08:47.486Z,0.70
2023-03-17T13:11:21.132Z,0.63
2023-03-17T13:14:08.733Z,0.97
2023-03-17T13:16:41.302Z,0.73
2023-03-17T13:19:21.701Z,0.87
2023-03-17T13:22:35.678Z,0.60
2023-03-17T13:25:17.717Z,0.90
2023-03-17T13:27:50.102Z,0.80
2023-03-17T13:31:08.858Z,1.87
2023-03-17T13:33:43.411Z,0.80
2023-03-17T13:36:35.545Z,1.27
2023-03-17T13:39:29.604Z,1.00
2023-03-17T13:42:17.890Z,0.80
2023-03-17T13:45:14.831Z,0.90
2023-03-17T13:47:44.031Z,1.10
2023-03-17T13:50:17.224Z,1.03
2023-03-17T13:52:50.907Z,1.00
2023-03-17T13:55:39.734Z,1.07
2023-03-17T13:58:35.700Z,0.80
2023-03-17T14:01:09.209Z,0.83
2023-03-17T14:03:46.115Z,1.10
2023-03-17T14:06:16.196Z,1.10
2023-03-17T14:08:48.514Z,1.30
2023-03-17T14:11:30.259Z,1.90
2023-03-17T14:14:32.596Z,1.23
2023-03-17T14:17:08.304Z,0.90
2023-03-17T14:19:41.523Z,0.80
2023-03-17T14:22:23.148Z,1.43
2023-03-17T14:24:55.352Z,0.90
2023-03-17T14:27:27.910Z,0.80
2023-03-17T14:29:56.883Z,0.80
2023-03-17T14:32:26.544Z,1.20
2023-03-17T14:34:57.900Z,0.90
2023-03-17T14:37:28.151Z,1.13
2023-03-17T14:39:59.429Z,1.20
2023-03-17T14:42:31.530Z,0.93
2023-03-17T14:45:06.794Z,1.23
2023-03-17T14:47:40.586Z,1.67
2023-03-17T14:50:18.942Z,0.83
2023-03-17T14:52:47.805Z,1.07
2023-03-17T14:55:19.949Z,1.03
2023-03-17T14:57:54.118Z,0.90
2023-03-17T15:00:45.812Z,1.00
2023-03-17T15:03:20.508Z,1.07
2023-03-17T15:05:49.994Z,0.90
2023-03-17T15:08:47.155Z,1.10
2023-03-17T15:11:24.841Z,1.53
2023-03-17T15:14:04.958Z,1.10
2023-03-17T15:16:36.851Z,1.07
2023-03-17T15:19:08.566Z,0.80
2023-03-17T15:21:41.366Z,1.20
2023-03-17T15:24:38.149Z,1.23
2023-03-17T15:27:08.519Z,1.27
2023-03-17T15:29:38.359Z,1.00
2023-03-17T15:32:15.457Z,1.30
2023-03-17T15:34:44.211Z,1.03
2023-03-17T15:37:18.403Z,0.90
2023-03-17T15:39:47.458Z,1.03
2023-03-17T15:42:16.344Z,1.00
2023-03-17T15:44:46.269Z,1.20
2023-03-17T15:47:16.738Z,0.83
2023-03-17T15:49:45.483Z,1.10
2023-03-17T15:52:18.961Z,1.10
2023-03-17T15:54:47.516Z,1.00
2023-03-17T15:57:16.050Z,1.17
2023-03-17T15:59:46.181Z,0.87
2023-03-17T16:02:26.124Z,1.30
2023-03-17T16:04:54.617Z,0.97
2023-03-17T16:07:23.911Z,1.03
2023-03-17T16:09:52.443Z,0.97
2023-03-17T16:12:21.314Z,1.53
2023-03-17T16:14:51.615Z,0.80
2023-03-17T16:17:26.830Z,0.90
2023-03-17T16:19:56.277Z,1.40
2023-03-17T16:22:38.333Z,1.10
2023-03-17T16:25:19.006Z,1.37
2023-03-17T16:27:48.140Z,0.90
2023-03-17T16:30:20.039Z,1.13
2023-03-17T16:32:49.389Z,0.90
2023-03-17T16:35:20.078Z,0.83
2023-03-17T16:37:49.317Z,1.33
2023-03-17T16:40:22.988Z,1.10
2023-03-17T16:42:51.964Z,1.93
2023-03-17T16:45:27.736Z,0.80
2023-03-17T16:47:56.462Z,1.37
2023-03-17T16:50:27.432Z,1.20
2023-03-17T16:52:56.250Z,1.20
2023-03-17T16:55:27.181Z,1.27
2023-03-17T16:57:58.387Z,0.77
2023-03-17T17:00:30.848Z,1.17
2023-03-17T17:03:00.284Z,1.20
2023-03-17T17:05:30.314Z,1.40
2023-03-17T17:07:59.390Z,1.17
2023-03-17T17:10:30.740Z,1.20
2023-03-17T17:12:59.628Z,1.00
2023-03-17T17:15:30.672Z,1.30
2023-03-17T17:18:02.392Z,1.50
2023-03-17T17:20:32.867Z,1.17
2023-03-17T17:23:02.687Z,2.00
2023-03-17T17:25:31.913Z,1.20
2023-03-17T17:28:01.141Z,1.60
2023-03-17T17:30:32.425Z,1.63
2023-03-17T17:33:01.908Z,2.10
2023-03-17T17:35:33.183Z,1.37
2023-03-17T17:38:02.420Z,1.40
2023-03-17T17:40:32.038Z,2.00
2023-03-17T17:43:00.720Z,1.40
2023-03-17T17:45:30.810Z,1.33
2023-03-17T17:47:59.425Z,1.50
2023-03-17T17:50:31.728Z,1.40
2023-03-17T17:53:05.381Z,2.17
2023-03-17T17:55:34.965Z,1.53
2023-03-17T17:58:03.426Z,1.27
2023-03-17T18:00:33.782Z,0.97
2023-03-17T18:03:02.429Z,1.20
2023-03-17T18:05:32.294Z,2.27
2023-03-17T18:08:02.523Z,1.77
2023-03-17T18:10:31.877Z,1.60
2023-03-17T18:13:00.889Z,1.37
2023-03-17T18:15:29.739Z,1.57
2023-03-17T18:17:59.525Z,1.37
2023-03-17T18:20:28.051Z,1.10
2023-03-17T18:22:56.785Z,1.70
2023-03-17T18:25:27.417Z,1.33
2023-03-17T18:27:57.610Z,1.33
2023-03-17T18:30:28.955Z,1.13
2023-03-17T18:33:01.877Z,1.43
2023-03-17T18:35:30.987Z,1.30
2023-03-17T18:37:59.777Z,1.30
2023-03-17T18:40:28.634Z,1.30
2023-03-17T18:42:57.485Z,1.20
2023-03-17T18:45:26.367Z,1.30
2023-03-17T18:47:54.735Z,1.73
2023-03-17T18:50:24.674Z,1.00
2023-03-17T18:52:53.164Z,1.80
2023-03-17T18:55:22.772Z,1.30
2023-03-17T18:57:52.010Z,0.90
2023-03-17T19:00:20.923Z,1.47
2023-03-17T19:02:49.390Z,1.10
2023-03-17T19:05:17.947Z,1.23
2023-03-17T19:07:47.862Z,0.93
2023-03-17T19:10:16.855Z,1.33
2023-03-17T19:12:46.226Z,1.03
2023-03-17T19:15:15.896Z,1.30
2023-03-17T19:17:44.322Z,1.20
2023-03-17T19:20:13.845Z,1.40
2023-03-17T19:22:42.339Z,1.50
2023-03-17T19:25:12.787Z,1.50
2023-03-17T19:27:41.378Z,2.13
2023-03-17T19:30:11.086Z,1.87
2023-03-17T19:32:41.813Z,1.60
2023-03-17T19:35:11.775Z,1.80
2023-03-17T19:37:40.622Z,2.13
2023-03-17T19:40:13.447Z,1.83
2023-03-17T19:42:41.947Z,1.70
2023-03-17T19:45:11.164Z,1.63
2023-03-17T19:47:40.525Z,1.30
2023-03-17T19:50:10.569Z,1.20
2023-03-17T19:52:39.273Z,1.60
2023-03-17T19:55:09.445Z,2.13
2023-03-17T19:57:39.246Z,1.83
2023-03-17T20:00:11.428Z,2.53
2023-03-17T20:02:40.166Z,2.03
2023-03-17T20:05:09.294Z,3.07
2023-03-17T20:07:37.854Z,3.57
2023-03-17T20:10:07.874Z,3.47
2023-03-17T20:12:38.915Z,2.30
2023-03-17T20:15:12.505Z,4.53
2023-03-17T20:17:41.616Z,2.43
2023-03-17T20:20:11.851Z,4.40
2023-03-17T20:22:43.673Z,7.73
2023-03-17T20:25:13.091Z,2.90
2023-03-17T20:27:43.143Z,2.20
2023-03-17T20:30:13.385Z,2.53
2023-03-17T20:32:41.862Z,2.30
2023-03-17T20:35:10.907Z,2.10
2023-03-17T20:37:40.293Z,1.97
2023-03-17T20:40:10.866Z,2.07
2023-03-17T20:42:39.336Z,2.10
2023-03-17T20:45:10.382Z,2.23
2023-03-17T20:47:38.838Z,1.80
2023-03-17T20:50:08.891Z,2.37
2023-03-17T20:52:38.320Z,2.17
2023-03-17T20:55:07.445Z,2.67
2023-03-17T20:57:36.460Z,3.70
2023-03-17T21:00:05.562Z,2.97
2023-03-17T21:02:35.668Z,3.30
2023-03-17T21:05:04.163Z,4.47
2023-03-17T21:07:32.549Z,3.50
2023-03-17T21:10:02.165Z,2.67
2023-03-17T21:12:31.879Z,2.63
2023-03-17T21:15:00.871Z,6.90
2023-03-17T21:17:29.485Z,8.00
2023-03-17T21:19:59.501Z,7.53
2023-03-17T21:22:30.116Z,10.13
2023-03-17T21:24:59.052Z,8.03
2023-03-17T21:27:27.426Z,10.53
2023-03-17T21:29:56.642Z,6.60
2023-03-17T21:32:25.141Z,7.63
2023-03-17T21:34:54.539Z,5.57
2023-03-17T21:37:24.392Z,3.33
2023-03-17T21:39:52.930Z,1.90
2023-03-17T21:42:21.585Z,1.60
2023-03-17T21:44:52.156Z,3.63
2023-03-17T21:47:21.187Z,2.17
2023-03-17T21:49:49.937Z,3.70
2023-03-17T21:52:20.972Z,2.80
2023-03-17T21:54:51.222Z,3.30
2023-03-17T21:57:20.602Z,2.97
2023-03-17T21:59:48.987Z,5.10
2023-03-17T22:02:17.842Z,3.67
2023-03-17T22:04:46.988Z,2.97
2023-03-17T22:07:16.724Z,2.33
2023-03-17T22:09:45.509Z,3.57
2023-03-17T22:12:15.452Z,2.40
2023-03-17T22:14:43.889Z,1.60
2023-03-17T22:17:12.532Z,1.43
2023-03-17T22:19:42.530Z,1.53
2023-03-17T22:22:11.378Z,4.47
2023-03-17T22:24:39.865Z,4.10
2023-03-17T22:27:08.475Z,3.20
2023-03-17T22:29:38.325Z,3.07
2023-03-17T22:32:07.248Z,2.50
2023-03-17T22:34:35.754Z,2.50
2023-03-17T22:37:04.544Z,1.70
2023-03-17T22:39:34.690Z,1.57
2023-03-17T22:42:03.388Z,1.40
2023-03-17T22:44:31.953Z,1.50
2023-03-17T22:47:01.829Z,2.30
2023-03-17T22:49:30.381Z,1.63
2023-03-17T22:51:58.741Z,1.20
2023-03-17T22:54:27.277Z,3.90
2023-03-17T22:56:55.652Z,3.43
2023-03-17T22:59:24.190Z,1.37
2023-03-17T23:01:52.644Z,1.60
2023-03-17T23:04:22.510Z,1.00
2023-03-17T23:06:50.903Z,1.10
2023-03-17T23:09:19.817Z,1.10
2023-03-17T23:11:48.237Z,1.00
2023-03-17T23:14:16.692Z,1.43
2023-03-17T23:16:45.214Z,3.50
2023-03-17T23:19:13.712Z,2.73
2023-03-17T23:21:43.543Z,2.30
2023-03-17T23:24:11.926Z,1.67
2023-03-17T23:26:40.314Z,1.80
2023-03-17T23:29:10.503Z,1.10
2023-03-17T23:31:39.745Z,1.10
2023-03-17T23:34:08.911Z,1.67
2023-03-17T23:36:40.190Z,1.73
2023-03-17T23:39:10.490Z,1.13
2023-03-17T23:41:39.129Z,1.53
2023-03-17T23:44:07.885Z,1.67
2023-03-17T23:46:36.748Z,2.07
2023-03-17T23:49:07.332Z,2.27
2023-03-17T23:51:35.731Z,1.73
2023-03-17T23:54:05.098Z,2.50
2023-03-17T23:56:35.662Z,2.50
2023-03-17T23:59:04.142Z,1.67
